Time,TemperatureF,DewpointF,PressureIn,WindDirection,WindDirectionDegrees,WindSpeedMPH,WindSpeedGustMPH,Humidity,HourlyPrecipIn,Conditions,Clouds,dailyrainin,SoftwareType,DateUTC
2013-01-24 00:00:00,13.0,9.1,30.08,SW,219,2.0,4.0,84,0.00,,SCT075,0.00,VWS V13.01,2013-01-24 05:00:00,
2013-01-24 00:01:00,13.0,9.1,30.08,SSW,209,2.0,3.0,84,0.00,,OVC032,0.00,VWS V13.01,2013-01-24 05:01:00,
2013-01-24 00:06:00,13.1,9.2,30.08,SSW,210,3.0,5.0,84,0.00,,OVC032,0.00,VWS V13.01,2013-01-24 05:06:00,
2013-01-24 00:11:00,13.1,9.2,30.08,South,187,2.0,5.0,84,0.00,,OVC032,0.00,VWS V13.01,2013-01-24 05:11:00,
2013-01-24 00:16:00,13.2,9.3,30.08,SSW,202,1.0,5.0,84,0.00,,OVC032,0.00,VWS V13.01,2013-01-24 05:16:00,
2013-01-24 00:21:00,13.2,9.3,30.08,SSW,213,0.0,5.0,84,0.00,,OVC032,0.00,VWS V13.01,2013-01-24 05:21:00,
2013-01-24 00:26:00,13.2,9.3,30.08,SW,219,2.0,5.0,84,0.00,,OVC032,0.00,VWS V13.01,2013-01-24 05:26:00,
2013-01-24 00:33:00,13.2,9.6,30.08,SSW,212,0.0,3.0,85,0.00,,OVC032,0.00,VWS V13.01,2013-01-24 05:33:00,
2013-01-24 00:38:00,13.2,9.6,30.08,SW,216,2.0,3.0,85,0.00,,OVC032,0.00,VWS V13.01,2013-01-24 05:38:00,
2013-01-24 00:43:00,13.2,9.6,30.08,WSW,240,0.0,3.0,85,0.00,,OVC032,0.00,VWS V13.01,2013-01-24 05:43:00,
2013-01-24 00:48:00,13.2,9.6,30.08,SSW,194,0.0,6.0,85,0.00,,OVC032,0.00,VWS V13.01,2013-01-24 05:48:00,
2013-01-24 00:53:00,13.3,9.9,30.08,SSW,194,0.0,6.0,86,0.00,,OVC032,0.00,VWS V13.01,2013-01-24 05:53:00,
2013-01-24 00:58:00,13.3,9.9,30.08,SSW,211,1.0,6.0,86,0.00,,OVC032,0.00,VWS V13.01,2013-01-24 05:58:00,
2013-01-24 01:03:00,13.3,9.9,30.08,SW,217,0.0,0.0,86,0.00,,,0.00,VWS V13.01,2013-01-24 06:03:00,
2013-01-24 01:08:00,13.3,9.9,30.08,SW,217,0.0,1.0,86,0.00,,,0.00,VWS V13.01,2013-01-24 06:08:00,
2013-01-24 01:13:00,13.4,10.0,30.08,SW,217,0.0,1.0,86,0.00,,,0.00,VWS V13.01,2013-01-24 06:13:00,
2013-01-24 01:18:00,13.3,9.9,30.09,NNE,30,2.0,2.0,86,0.00,,,0.00,VWS V13.01,2013-01-24 06:18:00,
2013-01-24 01:23:00,13.4,10.3,30.09,NE,50,0.0,3.0,87,0.00,,,0.00,VWS V13.01,2013-01-24 06:23:00,
2013-01-24 01:28:00,13.4,10.3,30.09,NE,50,0.0,3.0,87,0.00,,,0.00,VWS V13.01,2013-01-24 06:28:00,
2013-01-24 01:33:00,13.5,10.4,30.09,NE,50,0.0,2.0,87,0.00,,,0.00,VWS V13.01,2013-01-24 06:33:00,
2013-01-24 01:38:00,13.5,10.4,30.10,NE,56,0.0,3.0,87,0.00,,,0.00,VWS V13.01,2013-01-24 06:38:00,
2013-01-24 01:43:00,13.5,10.4,30.10,NE,56,0.0,3.0,87,0.00,,,0.00,VWS V13.01,2013-01-24 06:43:00,
2013-01-24 01:48:00,13.5,10.6,30.10,ENE,57,0.0,3.0,88,0.00,,,0.00,VWS V13.01,2013-01-24 06:48:00,
2013-01-24 01:53:00,13.5,10.4,30.10,ENE,57,0.0,3.0,87,0.00,,,0.00,VWS V13.01,2013-01-24 06:53:00,
2013-01-24 01:58:00,13.5,10.6,30.10,ENE,57,0.0,3.0,88,0.00,,,0.00,VWS V13.01,2013-01-24 06:58:00,
2013-01-24 02:00:00,32.3,24.3,29.95,SE,135,2.0,11.0,72,0.00,,CLR,0.00,VWS V13.01,2013-01-24 07:00:00,
2013-01-24 02:03:00,13.5,10.6,30.10,ENE,57,0.0,0.0,88,0.00,,,0.00,VWS V13.01,2013-01-24 07:03:00,
2013-01-24 02:08:00,13.4,10.5,30.10,ENE,57,0.0,0.0,88,0.00,,,0.00,VWS V13.01,2013-01-24 07:08:00,
2013-01-24 02:13:00,13.4,10.5,30.11,ENE,57,0.0,0.0,88,0.00,,,0.00,VWS V13.01,2013-01-24 07:13:00,
2013-01-24 02:18:00,13.4,10.5,30.11,ENE,57,0.0,0.0,88,0.00,,,0.00,VWS V13.01,2013-01-24 07:18:00,
2013-01-24 02:23:00,13.4,10.5,30.11,ENE,57,0.0,0.0,88,0.00,,,0.00,VWS V13.01,2013-01-24 07:23:00,
2013-01-24 02:28:00,13.4,10.5,30.11,ENE,57,0.0,0.0,88,0.00,,,0.00,VWS V13.01,2013-01-24 07:28:00,
2013-01-24 02:33:00,13.3,10.4,30.11,ENE,57,0.0,0.0,88,0.00,,,0.00,VWS V13.01,2013-01-24 07:33:00,
2013-01-24 02:38:00,13.3,10.4,30.11,ENE,57,0.0,0.0,88,0.00,,,0.00,VWS V13.01,2013-01-24 07:38:00,
2013-01-24 02:43:00,13.2,10.3,30.12,ENE,57,0.0,0.0,88,0.00,,,0.00,VWS V13.01,2013-01-24 07:43:00,
2013-01-24 02:49:00,13.2,10.3,30.12,ENE,57,0.0,0.0,88,0.00,,,0.00,VWS V13.01,2013-01-24 07:49:00,
2013-01-24 02:54:00,13.2,10.3,30.12,ENE,57,0.0,0.0,88,0.00,,,0.00,VWS V13.01,2013-01-24 07:54:00,
2013-01-24 02:59:00,13.2,10.3,30.13,ENE,57,0.0,0.0,88,0.00,,,0.00,VWS V13.01,2013-01-24 07:59:00,
2013-01-24 03:04:00,13.2,10.3,30.13,ENE,57,0.0,0.0,88,0.00,,,0.00,VWS V13.01,2013-01-24 08:04:00,
2013-01-24 03:09:00,13.2,10.3,30.13,ENE,57,0.0,0.0,88,0.00,,,0.00,VWS V13.01,2013-01-24 08:09:00,
2013-01-24 03:14:00,13.3,10.4,30.13,ENE,57,0.0,0.0,88,0.00,,,0.00,VWS V13.01,2013-01-24 08:14:00,
2013-01-24 03:19:00,13.2,10.3,30.13,ENE,57,0.0,0.0,88,0.00,,,0.00,VWS V13.01,2013-01-24 08:19:00,
2013-01-24 03:24:00,13.2,10.3,30.13,ENE,57,0.0,0.0,88,0.00,,,0.00,VWS V13.01,2013-01-24 08:24:00,
2013-01-24 03:29:00,13.2,10.3,30.14,ENE,57,0.0,0.0,88,0.00,,,0.00,VWS V13.01,2013-01-24 08:29:00,
2013-01-24 03:34:00,13.2,10.3,30.14,ENE,57,0.0,0.0,88,0.00,,,0.00,VWS V13.01,2013-01-24 08:34:00,
2013-01-24 03:39:00,13.2,10.3,30.14,ENE,57,0.0,0.0,88,0.00,,,0.00,VWS V13.01,2013-01-24 08:39:00,
2013-01-24 03:44:00,13.2,10.3,30.14,ENE,57,0.0,0.0,88,0.00,,,0.00,VWS V13.01,2013-01-24 08:44:00,
2013-01-24 03:49:00,13.2,10.3,30.14,ENE,57,0.0,0.0,88,0.00,,,0.00,VWS V13.01,2013-01-24 08:49:00,
2013-01-24 03:54:00,13.2,10.3,30.14,ENE,57,0.0,0.0,88,0.00,,,0.00,VWS V13.01,2013-01-24 08:54:00,
2013-01-24 03:59:00,13.2,10.3,30.15,ENE,57,0.0,0.0,88,0.00,,,0.00,VWS V13.01,2013-01-24 08:59:00,
2013-01-24 04:04:00,13.2,10.3,30.15,ENE,57,0.0,0.0,88,0.00,,,0.00,VWS V13.01,2013-01-24 09:04:00,
2013-01-24 04:09:00,13.1,10.2,30.15,ENE,57,0.0,0.0,88,0.00,,,0.00,VWS V13.01,2013-01-24 09:09:00,
2013-01-24 04:14:00,13.1,10.2,30.15,ENE,57,0.0,0.0,88,0.00,,,0.00,VWS V13.01,2013-01-24 09:14:00,
2013-01-24 04:19:00,13.0,10.1,30.16,ENE,57,0.0,0.0,88,0.00,,,0.00,VWS V13.01,2013-01-24 09:19:00,
2013-01-24 04:24:00,13.0,10.1,30.16,ENE,57,0.0,0.0,88,0.00,,,0.00,VWS V13.01,2013-01-24 09:24:00,
2013-01-24 04:29:00,13.0,10.4,30.16,ENE,57,0.0,0.0,89,0.00,,,0.00,VWS V13.01,2013-01-24 09:29:00,
2013-01-24 04:34:00,13.0,10.4,30.16,ENE,57,0.0,0.0,89,0.00,,,0.00,VWS V13.01,2013-01-24 09:34:00,
2013-01-24 04:39:00,13.2,10.6,30.17,ENE,57,0.0,0.0,89,0.00,,,0.00,VWS V13.01,2013-01-24 09:39:00,
2013-01-24 04:44:00,13.2,10.6,30.17,ENE,57,0.0,0.0,89,0.00,,,0.00,VWS V13.01,2013-01-24 09:44:00,
2013-01-24 04:49:00,13.2,10.6,30.17,ENE,57,0.0,0.0,89,0.00,,,0.00,VWS V13.01,2013-01-24 09:49:00,
2013-01-24 04:54:00,13.2,10.6,30.18,ENE,57,0.0,0.0,89,0.00,,,0.00,VWS V13.01,2013-01-24 09:54:00,
2013-01-24 04:59:00,13.3,10.7,30.18,ENE,57,0.0,0.0,89,0.00,,,0.00,VWS V13.01,2013-01-24 09:59:00,
2013-01-24 05:04:00,13.4,10.8,30.18,ENE,57,0.0,0.0,89,0.00,,,0.00,VWS V13.01,2013-01-24 10:04:00,
2013-01-24 05:09:00,13.5,10.9,30.19,ENE,57,0.0,0.0,89,0.00,,,0.00,VWS V13.01,2013-01-24 10:09:00,
2013-01-24 05:14:00,13.6,11.0,30.19,ENE,57,0.0,0.0,89,0.00,,,0.00,VWS V13.01,2013-01-24 10:14:00,
2013-01-24 05:19:00,13.6,11.0,30.19,ENE,57,0.0,0.0,89,0.00,,OVC035,0.00,VWS V13.01,2013-01-24 10:19:00,
2013-01-24 05:24:00,13.6,11.0,30.20,ENE,57,0.0,0.0,89,0.00,,OVC035,0.00,VWS V13.01,2013-01-24 10:24:00,
2013-01-24 05:29:00,13.6,11.0,30.20,ENE,57,0.0,0.0,89,0.00,,OVC035,0.00,VWS V13.01,2013-01-24 10:29:00,
2013-01-24 05:34:00,13.6,11.0,30.21,ENE,57,0.0,0.0,89,0.00,,,0.00,VWS V13.01,2013-01-24 10:34:00,
2013-01-24 05:39:00,13.7,11.1,30.21,North,9,0.0,5.0,89,0.00,,,0.00,VWS V13.01,2013-01-24 10:39:00,
2013-01-24 05:44:00,14.2,11.6,30.21,North,355,0.0,5.0,89,0.00,,,0.00,VWS V13.01,2013-01-24 10:44:00,
2013-01-24 05:49:00,14.7,12.1,30.21,NNE,32,1.0,5.0,89,0.00,,,0.00,VWS V13.01,2013-01-24 10:49:00,
2013-01-24 05:54:00,15.3,12.6,30.22,North,351,0.0,6.0,89,0.00,,,0.00,VWS V13.01,2013-01-24 10:54:00,
2013-01-24 05:59:00,15.8,13.1,30.22,NNW,346,0.0,6.0,89,0.00,,,0.00,VWS V13.01,2013-01-24 10:59:00,
2013-01-24 06:04:00,16.2,13.3,30.22,NNW,346,1.0,2.0,88,0.00,,,0.00,VWS V13.01,2013-01-24 11:04:00,
2013-01-24 06:09:00,16.3,13.4,30.23,North,349,4.0,5.0,88,0.00,,,0.00,VWS V13.01,2013-01-24 11:09:00,
2013-01-24 06:14:00,16.3,13.1,30.23,North,351,0.0,5.0,87,0.00,,,0.00,VWS V13.01,2013-01-24 11:14:00,
2013-01-24 06:19:00,16.3,12.9,30.24,NW,313,0.0,5.0,86,0.00,,BKN040,0.00,VWS V13.01,2013-01-24 11:19:00,
2013-01-24 06:24:00,16.4,12.7,30.24,NNE,16,0.0,8.0,85,0.00,,BKN040,0.00,VWS V13.01,2013-01-24 11:24:00,
2013-01-24 06:29:00,16.6,12.9,30.24,North,360,0.0,8.0,85,0.00,,BKN040,0.00,VWS V13.01,2013-01-24 11:29:00,
2013-01-24 06:34:00,16.8,12.8,30.25,North,355,0.0,7.0,84,0.00,,BKN040,0.00,VWS V13.01,2013-01-24 11:34:00,
2013-01-24 06:39:00,17.0,12.7,30.25,North,5,1.0,7.0,83,0.00,,BKN040,0.00,VWS V13.01,2013-01-24 11:39:00,
2013-01-24 06:44:00,17.2,12.9,30.26,North,5,2.0,7.0,83,0.00,,BKN040,0.00,VWS V13.01,2013-01-24 11:44:00,
2013-01-24 06:49:00,17.3,12.8,30.26,West,263,2.0,9.0,82,0.00,,BKN040,0.00,VWS V13.01,2013-01-24 11:49:00,
2013-01-24 06:55:00,17.3,12.8,30.26,North,349,0.0,9.0,82,0.00,,BKN040,0.00,VWS V13.01,2013-01-24 11:55:00,
2013-01-24 07:00:00,17.2,12.4,30.27,NNE,24,3.0,9.0,81,0.00,,BKN040,0.00,VWS V13.01,2013-01-24 12:00:00,
2013-01-24 07:04:00,17.1,12.3,30.27,North,355,3.0,7.0,81,0.00,,OVC047,0.00,VWS V13.01,2013-01-24 12:04:00,
2013-01-24 07:09:00,17.1,12.3,30.28,NNW,344,0.0,10.0,81,0.00,,OVC047,0.00,VWS V13.01,2013-01-24 12:09:00,
2013-01-24 07:14:00,17.1,12.0,30.28,North,355,2.0,10.0,80,0.00,,OVC047,0.00,VWS V13.01,2013-01-24 12:14:00,
2013-01-24 07:20:00,17.1,11.7,30.28,NNW,333,2.0,10.0,79,0.00,,OVC047,0.00,VWS V13.01,2013-01-24 12:20:00,
2013-01-24 07:25:00,17.1,11.7,30.29,NNE,15,2.0,10.0,79,0.00,,OVC047,0.00,VWS V13.01,2013-01-24 12:25:00,
2013-01-24 07:30:00,17.2,12.1,30.29,North,5,0.0,10.0,80,0.00,,OVC047,0.00,VWS V13.01,2013-01-24 12:30:00,
2013-01-24 07:35:00,17.3,12.2,30.30,NNW,333,2.0,5.0,80,0.00,,OVC047,0.00,VWS V13.01,2013-01-24 12:35:00,
2013-01-24 07:40:00,17.3,12.5,30.30,NNW,342,3.0,7.0,81,0.00,,OVC047,0.00,VWS V13.01,2013-01-24 12:40:00,
2013-01-24 07:45:00,17.2,12.4,30.31,North,355,1.0,10.0,81,0.00,,OVC047,0.00,VWS V13.01,2013-01-24 12:45:00,
2013-01-24 07:50:00,17.2,12.1,30.31,NNW,336,0.0,10.0,80,0.00,,OVC047,0.00,VWS V13.01,2013-01-24 12:50:00,
2013-01-24 07:55:00,17.1,11.7,30.32,North,360,0.0,10.0,79,0.00,,OVC047,0.00,VWS V13.01,2013-01-24 12:55:00,
2013-01-24 08:00:00,17.0,11.6,30.32,North,355,2.0,10.0,79,0.00,,OVC047,0.00,VWS V13.01,2013-01-24 13:00:00,
2013-01-24 08:05:00,17.0,11.6,30.32,North,349,0.0,6.0,79,0.00,,OVC032,0.00,VWS V13.01,2013-01-24 13:05:00,
2013-01-24 08:10:00,17.0,11.6,30.32,North,355,1.0,6.0,79,0.00,,OVC032,0.00,VWS V13.01,2013-01-24 13:10:00,
2013-01-24 08:15:00,17.0,11.3,30.33,North,350,2.0,7.0,78,0.00,,OVC032,0.00,VWS V13.01,2013-01-24 13:15:00,
2013-01-24 08:20:00,17.0,11.6,30.33,NNW,347,3.0,7.0,79,0.00,,OVC034,0.00,VWS V13.01,2013-01-24 13:20:00,
2013-01-24 08:25:00,17.0,11.3,30.33,North,355,1.0,7.0,78,0.00,,OVC034,0.00,VWS V13.01,2013-01-24 13:25:00,
2013-01-24 08:30:00,17.0,11.3,30.34,NNE,13,0.0,7.0,78,0.00,,OVC034,0.00,VWS V13.01,2013-01-24 13:30:00,
2013-01-24 08:35:00,17.2,11.5,30.35,NNW,346,0.0,4.0,78,0.00,,SCT034,0.00,VWS V13.01,2013-01-24 13:35:00,
2013-01-24 08:40:00,17.2,11.5,30.35,North,355,1.0,4.0,78,0.00,,SCT034,0.00,VWS V13.01,2013-01-24 13:40:00,
2013-01-24 08:45:00,17.2,11.5,30.35,NNE,18,2.0,7.0,78,0.00,,SCT034,0.00,VWS V13.01,2013-01-24 13:45:00,
2013-01-24 08:50:00,17.1,11.1,30.36,North,5,3.0,7.0,77,0.00,,SCT034,0.00,VWS V13.01,2013-01-24 13:50:00,
2013-01-24 08:55:00,17.0,11.1,30.36,North,5,8.0,9.0,77,0.00,,SCT034,0.00,VWS V13.01,2013-01-24 13:55:00,
2013-01-24 09:00:00,17.0,11.1,30.37,NNW,327,2.0,3.0,77,0.00,,SCT034,0.00,VWS V13.01,2013-01-24 14:00:00,
2013-01-24 09:05:00,17.0,11.3,30.37,North,360,1.0,9.0,78,0.00,,BKN027,0.00,VWS V13.01,2013-01-24 14:05:00,
2013-01-24 09:10:00,16.9,11.5,30.38,NNW,333,2.0,12.0,79,0.00,,BKN027,0.00,VWS V13.01,2013-01-24 14:10:00,
2013-01-24 09:15:00,16.7,11.6,30.38,North,355,3.0,12.0,80,0.00,,BKN025,0.00,VWS V13.01,2013-01-24 14:15:00,
2013-01-24 09:20:00,16.5,11.4,30.39,North,350,0.0,12.0,80,0.00,,BKN025,0.00,VWS V13.01,2013-01-24 14:20:00,
2013-01-24 09:25:00,16.3,11.5,30.39,North,355,5.0,12.0,81,0.00,,BKN025,0.00,VWS V13.01,2013-01-24 14:25:00,
2013-01-24 09:30:00,15.9,11.1,30.40,North,355,0.0,1.0,81,0.00,,BKN025,0.00,VWS V13.01,2013-01-24 14:30:00,
2013-01-24 09:35:00,15.7,10.9,30.40,West,281,0.0,4.0,81,0.00,,BKN025,0.00,VWS V13.01,2013-01-24 14:35:00,
2013-01-24 09:40:00,15.5,10.7,30.41,North,355,1.0,5.0,81,0.00,,BKN025,0.00,VWS V13.01,2013-01-24 14:40:00,
2013-01-24 09:45:00,15.6,11.1,30.41,North,350,2.0,9.0,82,0.00,,BKN025,0.00,VWS V13.01,2013-01-24 14:45:00,
2013-01-24 09:50:00,15.7,11.2,30.42,North,360,9.0,11.0,82,0.00,,BKN025,0.00,VWS V13.01,2013-01-24 14:50:00,
2013-01-24 09:55:00,15.8,11.3,30.42,WSW,253,5.0,11.0,82,0.00,,BKN025,0.00,VWS V13.01,2013-01-24 14:55:00,
2013-01-24 10:00:00,15.8,11.3,30.42,NW,316,2.0,9.0,82,0.00,,BKN025,0.00,VWS V13.01,2013-01-24 15:00:00,
2013-01-24 10:05:00,15.9,11.4,30.43,NNE,13,4.0,9.0,82,0.00,,BKN016,0.00,VWS V13.01,2013-01-24 15:05:00,
2013-01-24 10:10:00,16.2,11.7,30.43,North,351,2.0,9.0,82,0.00,,BKN016,0.00,VWS V13.01,2013-01-24 15:10:00,
2013-01-24 10:15:00,16.0,11.2,30.43,North,355,1.0,11.0,81,0.00,,BKN016,0.00,VWS V13.01,2013-01-24 15:15:00,
2013-01-24 10:20:00,15.7,10.9,30.44,NNE,15,2.0,11.0,81,0.00,,BKN016,0.00,VWS V13.01,2013-01-24 15:20:00,
2013-01-24 10:25:00,15.7,11.2,30.44,NNW,342,0.0,11.0,82,0.00,,BKN016,0.00,VWS V13.01,2013-01-24 15:25:00,
2013-01-24 10:30:00,15.9,11.4,30.45,NNE,13,3.0,4.0,82,0.00,,BKN016,0.00,VWS V13.01,2013-01-24 15:30:00,
2013-01-24 10:35:00,16.1,11.6,30.45,WNW,295,1.0,4.0,82,0.00,,BKN016,0.00,VWS V13.01,2013-01-24 15:35:00,
2013-01-24 10:40:00,16.2,11.4,30.46,North,350,1.0,4.0,81,0.00,,BKN016,0.00,VWS V13.01,2013-01-24 15:40:00,
2013-01-24 10:45:00,16.1,11.3,30.46,NW,317,10.0,12.0,81,0.00,,BKN016,0.00,VWS V13.01,2013-01-24 15:45:00,
2013-01-24 10:50:00,16.1,11.3,30.46,North,11,1.0,12.0,81,0.00,,BKN016,0.00,VWS V13.01,2013-01-24 15:50:00,
2013-01-24 10:56:00,16.0,11.2,30.47,North,360,0.0,13.0,81,0.00,,BKN016,0.00,VWS V13.01,2013-01-24 15:56:00,
2013-01-24 11:00:00,15.8,10.7,30.47,North,9,0.0,2.0,80,0.00,,BKN016,0.00,VWS V13.01,2013-01-24 16:00:00,
2013-01-24 11:06:00,15.9,11.1,30.47,NNE,25,0.0,4.0,81,0.00,,OVC018,0.00,VWS V13.01,2013-01-24 16:06:00,
2013-01-24 11:11:00,15.9,10.8,30.48,North,355,2.0,6.0,80,0.00,,OVC018,0.00,VWS V13.01,2013-01-24 16:11:00,
2013-01-24 11:16:00,16.1,11.0,30.48,North,355,0.0,6.0,80,0.00,,OVC018,0.00,VWS V13.01,2013-01-24 16:16:00,
2013-01-24 11:21:00,16.3,11.2,30.48,NW,324,3.0,9.0,80,0.00,,OVC018,0.00,VWS V13.01,2013-01-24 16:21:00,
2013-01-24 11:26:00,16.1,10.8,30.49,NNW,348,3.0,9.0,79,0.00,,OVC018,0.00,VWS V13.01,2013-01-24 16:26:00,
2013-01-24 11:31:00,16.1,11.0,30.49,North,5,0.0,5.0,80,0.00,,OVC018,0.00,VWS V13.01,2013-01-24 16:31:00,
2013-01-24 11:36:00,16.2,10.8,30.49,NNW,343,5.0,5.0,79,0.00,,OVC018,0.00,VWS V13.01,2013-01-24 16:36:00,
2013-01-24 11:41:00,16.3,10.7,30.49,NNW,344,4.0,6.0,78,0.00,,OVC018,0.00,VWS V13.01,2013-01-24 16:41:00,
2013-01-24 11:46:00,16.3,10.7,30.50,NNW,339,1.0,7.0,78,0.00,,OVC018,0.00,VWS V13.01,2013-01-24 16:46:00,
2013-01-24 11:51:00,16.3,10.7,30.50,North,9,2.0,7.0,78,0.00,,OVC018,0.00,VWS V13.01,2013-01-24 16:51:00,
2013-01-24 11:56:00,16.5,10.9,30.50,NNE,12,0.0,7.0,78,0.00,,OVC018,0.00,VWS V13.01,2013-01-24 16:56:00,
2013-01-24 12:01:00,16.7,10.8,30.50,NNE,23,3.0,5.0,77,0.00,,OVC028,0.00,VWS V13.01,2013-01-24 17:01:00,
2013-01-24 12:06:00,17.2,11.2,30.50,NNW,348,3.0,5.0,77,0.00,,OVC028,0.00,VWS V13.01,2013-01-24 17:06:00,
2013-01-24 12:11:00,17.3,10.8,30.50,North,5,0.0,6.0,75,0.00,,OVC028,0.00,VWS V13.01,2013-01-24 17:11:00,
2013-01-24 12:16:00,17.5,10.9,30.50,North,360,0.0,6.0,75,0.00,,OVC028,0.00,VWS V13.01,2013-01-24 17:16:00,
2013-01-24 12:21:00,17.4,10.6,30.50,NNW,344,3.0,10.0,74,0.00,,OVC028,0.00,VWS V13.01,2013-01-24 17:21:00,
2013-01-24 12:26:00,17.2,10.4,30.50,WNW,301,1.0,10.0,74,0.00,,OVC028,0.00,VWS V13.01,2013-01-24 17:26:00,
2013-01-24 12:31:00,17.0,9.9,30.50,West,281,5.0,6.0,73,0.00,,OVC028,0.00,VWS V13.01,2013-01-24 17:31:00,
2013-01-24 12:36:00,16.8,9.7,30.50,North,360,1.0,6.0,73,0.00,,OVC028,0.00,VWS V13.01,2013-01-24 17:36:00,
2013-01-24 12:41:00,16.9,9.8,30.50,North,360,3.0,6.0,73,0.00,,OVC028,0.00,VWS V13.01,2013-01-24 17:41:00,
2013-01-24 12:46:00,16.9,9.1,30.50,WNW,294,2.0,6.0,71,0.00,,OVC028,0.00,VWS V13.01,2013-01-24 17:46:00,
2013-01-24 12:51:00,16.9,9.4,30.50,NE,36,2.0,8.0,72,0.00,,OVC028,0.00,VWS V13.01,2013-01-24 17:51:00,
2013-01-24 12:56:00,16.8,9.0,30.49,NW,312,0.0,8.0,71,0.00,,OVC028,0.00,VWS V13.01,2013-01-24 17:56:00,
2013-01-24 13:01:00,17.0,8.9,30.49,North,360,1.0,7.0,70,0.00,,SCT028,0.00,VWS V13.01,2013-01-24 18:01:00,
2013-01-24 13:06:00,16.8,8.4,30.50,North,355,3.0,7.0,69,0.00,,SCT028,0.00,VWS V13.01,2013-01-24 18:06:00,
2013-01-24 13:11:00,17.0,8.9,30.49,West,265,6.0,7.0,70,0.00,,SCT028,0.00,VWS V13.01,2013-01-24 18:11:00,
2013-01-24 13:16:00,17.0,8.3,30.49,NNW,345,0.0,7.0,68,0.00,,SCT028,0.00,VWS V13.01,2013-01-24 18:16:00,
2013-01-24 13:21:00,17.3,8.6,30.49,West,276,0.0,7.0,68,0.00,,SCT028,0.00,VWS V13.01,2013-01-24 18:21:00,
2013-01-24 13:26:00,17.7,9.3,30.49,North,350,5.0,7.0,69,0.00,,SCT028,0.00,VWS V13.01,2013-01-24 18:26:00,
2013-01-24 13:31:00,17.9,8.8,30.49,North,355,0.0,4.0,67,0.00,,SCT028,0.00,VWS V13.01,2013-01-24 18:31:00,
2013-01-24 13:36:00,17.8,8.7,30.49,North,360,5.0,6.0,67,0.00,,SCT028,0.00,VWS V13.01,2013-01-24 18:36:00,
2013-01-24 13:41:00,17.5,8.4,30.49,West,275,4.0,6.0,67,0.00,,SCT028,0.00,VWS V13.01,2013-01-24 18:41:00,
2013-01-24 13:46:00,17.1,7.7,30.49,North,355,2.0,6.0,66,0.00,,SCT028,0.00,VWS V13.01,2013-01-24 18:46:00,
2013-01-24 13:51:00,16.9,7.5,30.49,WNW,293,0.0,6.0,66,0.00,,SCT028,0.00,VWS V13.01,2013-01-24 18:51:00,
2013-01-24 13:56:00,16.8,7.4,30.49,North,360,0.0,6.0,66,0.00,,SCT028,0.00,VWS V13.01,2013-01-24 18:56:00,
2013-01-24 14:01:00,16.8,7.1,30.50,West,275,5.0,6.0,65,0.00,,BKN036,0.00,VWS V13.01,2013-01-24 19:01:00,
2013-01-24 14:06:00,17.0,6.9,30.50,North,355,2.0,6.0,64,0.00,,BKN036,0.00,VWS V13.01,2013-01-24 19:06:00,
2013-01-24 14:11:00,17.5,7.1,30.50,NW,315,2.0,9.0,63,0.00,,BKN036,0.00,VWS V13.01,2013-01-24 19:11:00,
2013-01-24 14:16:00,17.5,6.7,30.50,West,280,4.0,9.0,62,0.00,,BKN036,0.00,VWS V13.01,2013-01-24 19:16:00,
2013-01-24 14:21:00,17.2,6.4,30.50,West,275,2.0,9.0,62,0.00,,BKN036,0.00,VWS V13.01,2013-01-24 19:21:00,
2013-01-24 14:26:00,17.2,6.8,30.50,NW,315,2.0,9.0,63,0.00,,BKN036,0.00,VWS V13.01,2013-01-24 19:26:00,
2013-01-24 14:31:00,17.6,7.2,30.51,WNW,292,3.0,4.0,63,0.00,,BKN036,0.00,VWS V13.01,2013-01-24 19:31:00,
2013-01-24 14:36:00,18.2,7.7,30.51,WNW,292,0.0,6.0,63,0.00,,BKN036,0.00,VWS V13.01,2013-01-24 19:36:00,
2013-01-24 14:41:00,18.2,7.4,30.51,West,267,0.0,7.0,62,0.00,,BKN036,0.00,VWS V13.01,2013-01-24 19:41:00,
2013-01-24 14:46:00,17.7,6.9,30.51,WNW,285,3.0,7.0,62,0.00,,BKN036,0.00,VWS V13.01,2013-01-24 19:46:00,
2013-01-24 14:51:00,17.7,7.3,30.51,West,267,4.0,7.0,63,0.00,,BKN036,0.00,VWS V13.01,2013-01-24 19:51:00,
2013-01-24 14:56:00,18.2,8.1,30.51,North,9,0.0,7.0,64,0.00,,BKN036,0.00,VWS V13.01,2013-01-24 19:56:00,
2013-01-24 15:01:00,18.3,7.8,30.52,WNW,296,1.0,5.0,63,0.00,,BKN036,0.00,VWS V13.01,2013-01-24 20:01:00,
2013-01-24 15:06:00,18.4,7.9,30.52,West,262,3.0,5.0,63,0.00,,BKN036,0.00,VWS V13.01,2013-01-24 20:06:00,
2013-01-24 15:11:00,18.2,7.7,30.52,West,277,6.0,10.0,63,0.00,,BKN036,0.00,VWS V13.01,2013-01-24 20:11:00,
2013-01-24 15:16:00,18.1,7.6,30.52,West,265,3.0,10.0,63,0.00,,BKN036,0.00,VWS V13.01,2013-01-24 20:16:00,
2013-01-24 15:21:00,17.9,7.1,30.53,West,278,1.0,10.0,62,0.00,,BKN036,0.00,VWS V13.01,2013-01-24 20:21:00,
2013-01-24 15:26:00,17.8,7.0,30.53,WNW,284,2.0,10.0,62,0.00,,BKN036,0.00,VWS V13.01,2013-01-24 20:26:00,
2013-01-24 15:31:00,17.8,6.3,30.53,WNW,282,3.0,5.0,60,0.00,,BKN036,0.00,VWS V13.01,2013-01-24 20:31:00,
2013-01-24 15:36:00,17.8,6.3,30.53,WNW,285,1.0,6.0,60,0.00,,BKN036,0.00,VWS V13.01,2013-01-24 20:36:00,
2013-01-24 15:41:00,17.6,5.7,30.53,WNW,303,4.0,9.0,59,0.00,,BKN036,0.00,VWS V13.01,2013-01-24 20:41:00,
2013-01-24 15:46:00,17.5,6.0,30.53,WNW,290,2.0,9.0,60,0.00,,BKN036,0.00,VWS V13.01,2013-01-24 20:46:00,
2013-01-24 15:51:00,17.3,5.4,30.53,West,273,3.0,9.0,59,0.00,,BKN036,0.00,VWS V13.01,2013-01-24 20:51:00,
2013-01-24 15:56:00,17.1,5.2,30.53,WNW,286,0.0,9.0,59,0.00,,BKN036,0.00,VWS V13.01,2013-01-24 20:56:00,
2013-01-24 16:01:00,17.0,5.5,30.53,NNW,331,0.0,1.0,60,0.00,,CLR,0.00,VWS V13.01,2013-01-24 21:01:00,
2013-01-24 16:06:00,16.7,5.2,30.54,NW,304,1.0,7.0,60,0.00,,CLR,0.00,VWS V13.01,2013-01-24 21:06:00,
2013-01-24 16:11:00,16.4,4.6,30.54,WNW,300,0.0,10.0,59,0.00,,CLR,0.00,VWS V13.01,2013-01-24 21:11:00,
2013-01-24 16:16:00,16.3,4.9,30.54,WNW,285,4.0,10.0,60,0.00,,CLR,0.00,VWS V13.01,2013-01-24 21:16:00,
2013-01-24 16:21:00,16.1,4.7,30.54,West,273,2.0,10.0,60,0.00,,CLR,0.00,VWS V13.01,2013-01-24 21:21:00,
2013-01-24 16:26:00,16.0,4.9,30.54,WNW,282,2.0,10.0,61,0.00,,CLR,0.00,VWS V13.01,2013-01-24 21:26:00,
2013-01-24 16:31:00,15.9,5.2,30.54,NW,314,1.0,5.0,62,0.00,,CLR,0.00,VWS V13.01,2013-01-24 21:31:00,
2013-01-24 16:37:00,15.9,5.6,30.54,WNW,286,1.0,6.0,63,0.00,,CLR,0.00,VWS V13.01,2013-01-24 21:37:00,
2013-01-24 16:42:00,16.1,6.1,30.54,WSW,252,1.0,6.0,64,0.00,,CLR,0.00,VWS V13.01,2013-01-24 21:42:00,
2013-01-24 16:47:00,16.1,6.1,30.55,West,281,3.0,6.0,64,0.00,,CLR,0.00,VWS V13.01,2013-01-24 21:47:00,
2013-01-24 16:52:00,16.2,5.8,30.54,WNW,292,4.0,10.0,63,0.00,,CLR,0.00,VWS V13.01,2013-01-24 21:52:00,
2013-01-24 16:57:00,16.3,6.3,30.54,WNW,294,0.0,10.0,64,0.00,,CLR,0.00,VWS V13.01,2013-01-24 21:57:00,
2013-01-24 17:02:00,16.3,6.3,30.54,West,273,7.0,8.0,64,0.00,,BKN039,0.00,VWS V13.01,2013-01-24 22:02:00,
2013-01-24 17:07:00,16.3,6.3,30.54,North,355,0.0,9.0,64,0.00,,BKN039,0.00,VWS V13.01,2013-01-24 22:07:00,
2013-01-24 17:12:00,16.3,6.3,30.54,NNW,328,0.0,9.0,64,0.00,,BKN039,0.00,VWS V13.01,2013-01-24 22:12:00,
2013-01-24 17:17:00,16.2,6.8,30.54,WNW,286,4.0,9.0,66,0.00,,BKN039,0.00,VWS V13.01,2013-01-24 22:17:00,
2013-01-24 17:22:00,16.2,7.2,30.54,NW,304,1.0,9.0,67,0.00,,BKN039,0.00,VWS V13.01,2013-01-24 22:22:00,
2013-01-24 17:27:00,16.2,7.5,30.54,WNW,282,4.0,9.0,68,0.00,,BKN039,0.00,VWS V13.01,2013-01-24 22:27:00,
2013-01-24 17:32:00,16.2,7.5,30.54,North,360,2.0,4.0,68,0.00,,BKN039,0.00,VWS V13.01,2013-01-24 22:32:00,
2013-01-24 17:37:00,16.3,7.6,30.54,NNW,340,1.0,6.0,68,0.00,,BKN039,0.00,VWS V13.01,2013-01-24 22:37:00,
2013-01-24 17:42:00,16.2,7.5,30.54,WNW,301,0.0,9.0,68,0.00,,BKN039,0.00,VWS V13.01,2013-01-24 22:42:00,
2013-01-24 17:47:00,16.2,7.5,30.54,North,355,0.0,9.0,68,0.00,,BKN039,0.00,VWS V13.01,2013-01-24 22:47:00,
2013-01-24 17:52:00,16.1,7.7,30.54,West,281,4.0,9.0,69,0.00,,BKN039,0.00,VWS V13.01,2013-01-24 22:52:00,
2013-01-24 17:57:00,16.1,8.1,30.55,SSW,207,4.0,11.0,70,0.00,,BKN039,0.00,VWS V13.01,2013-01-24 22:57:00,
2013-01-24 18:02:00,16.2,8.1,30.55,NW,310,0.0,4.0,70,0.00,,BKN035,0.00,VWS V13.01,2013-01-24 23:02:00,
2013-01-24 18:07:00,16.1,8.1,30.55,NNE,12,0.0,4.0,70,0.00,,BKN035,0.00,VWS V13.01,2013-01-24 23:07:00,
2013-01-24 18:12:00,16.2,8.1,30.55,NNW,341,0.0,10.0,70,0.00,,BKN035,0.00,VWS V13.01,2013-01-24 23:12:00,
2013-01-24 18:17:00,16.2,8.5,30.56,North,360,0.0,10.0,71,0.00,,BKN035,0.00,VWS V13.01,2013-01-24 23:17:00,
2013-01-24 18:22:00,16.2,8.5,30.56,NW,304,1.0,10.0,71,0.00,,BKN035,0.00,VWS V13.01,2013-01-24 23:22:00,
2013-01-24 18:27:00,16.1,8.4,30.56,WNW,284,2.0,10.0,71,0.00,,BKN035,0.00,VWS V13.01,2013-01-24 23:27:00,
2013-01-24 18:32:00,16.0,8.3,30.56,West,261,1.0,5.0,71,0.00,,BKN035,0.00,VWS V13.01,2013-01-24 23:32:00,
2013-01-24 18:37:00,16.0,8.3,30.56,NW,304,0.0,7.0,71,0.00,,BKN035,0.00,VWS V13.01,2013-01-24 23:37:00,
2013-01-24 18:42:00,15.8,8.1,30.56,NNW,332,2.0,7.0,71,0.00,,BKN035,0.00,VWS V13.01,2013-01-24 23:42:00,
2013-01-24 18:47:00,15.8,8.1,30.56,West,280,2.0,7.0,71,0.00,,BKN035,0.00,VWS V13.01,2013-01-24 23:47:00,
2013-01-24 18:52:00,15.8,8.1,30.57,WNW,285,0.0,7.0,71,0.00,,BKN035,0.00,VWS V13.01,2013-01-24 23:52:00,
2013-01-24 18:57:00,15.9,8.5,30.56,NW,315,1.0,7.0,72,0.00,,BKN035,0.00,VWS V13.01,2013-01-24 23:57:00,
2013-01-24 19:02:00,15.9,8.2,30.57,WNW,294,0.0,2.0,71,0.00,,BKN032,0.00,VWS V13.01,2013-01-25 00:02:00,
2013-01-24 19:07:00,15.8,8.1,30.57,WNW,294,0.0,2.0,71,0.00,,BKN032,0.00,VWS V13.01,2013-01-25 00:07:00,
2013-01-24 19:12:00,15.8,8.4,30.56,WNW,293,0.0,3.0,72,0.00,,BKN032,0.00,VWS V13.01,2013-01-25 00:12:00,
2013-01-24 19:17:00,15.8,8.1,30.56,WNW,287,2.0,4.0,71,0.00,,BKN032,0.00,VWS V13.01,2013-01-25 00:17:00,
2013-01-24 19:22:00,15.9,8.2,30.57,WNW,300,0.0,10.0,71,0.00,,BKN032,0.00,VWS V13.01,2013-01-25 00:22:00,
2013-01-24 19:27:00,15.9,8.2,30.57,WNW,290,1.0,10.0,71,0.00,,BKN032,0.00,VWS V13.01,2013-01-25 00:27:00,
2013-01-24 19:32:00,16.0,8.3,30.56,WNW,288,0.0,2.0,71,0.00,,BKN032,0.00,VWS V13.01,2013-01-25 00:32:00,
2013-01-24 19:37:00,16.0,8.3,30.56,WNW,285,2.0,4.0,71,0.00,,BKN032,0.00,VWS V13.01,2013-01-25 00:37:00,
2013-01-24 19:42:00,15.9,8.2,30.56,West,278,3.0,5.0,71,0.00,,BKN032,0.00,VWS V13.01,2013-01-25 00:42:00,
2013-01-24 19:47:00,15.8,8.1,30.56,West,281,1.0,5.0,71,0.00,,BKN032,0.00,VWS V13.01,2013-01-25 00:47:00,
2013-01-24 19:52:00,15.9,8.2,30.56,West,281,1.0,5.0,71,0.00,,BKN032,0.00,VWS V13.01,2013-01-25 00:52:00,
2013-01-24 19:57:00,15.9,8.5,30.56,West,281,0.0,5.0,72,0.00,,BKN032,0.00,VWS V13.01,2013-01-25 00:57:00,
2013-01-24 20:02:00,16.0,8.9,30.56,West,281,0.0,0.0,73,0.00,,BKN034,0.00,VWS V13.01,2013-01-25 01:02:00,
2013-01-24 20:07:00,16.0,8.9,30.56,NW,304,0.0,3.0,73,0.00,,BKN034,0.00,VWS V13.01,2013-01-25 01:07:00,
2013-01-24 20:12:00,16.0,8.9,30.55,NW,306,0.0,3.0,73,0.00,,BKN034,0.00,VWS V13.01,2013-01-25 01:12:00,
2013-01-24 20:17:00,15.9,8.8,30.55,West,275,1.0,3.0,73,0.00,,BKN034,0.00,VWS V13.01,2013-01-25 01:17:00,
2013-01-24 20:22:00,15.9,8.8,30.55,North,355,0.0,3.0,73,0.00,,BKN034,0.00,VWS V13.01,2013-01-25 01:22:00,
2013-01-24 20:27:00,15.8,8.1,30.55,North,355,2.0,6.0,71,0.00,,BKN034,0.00,VWS V13.01,2013-01-25 01:27:00,
2013-01-24 20:32:00,15.6,7.9,30.55,North,5,0.0,3.0,71,0.00,,BKN034,0.00,VWS V13.01,2013-01-25 01:32:00,
2013-01-24 20:37:00,15.4,7.7,30.55,North,5,0.0,3.0,71,0.00,,BKN034,0.00,VWS V13.01,2013-01-25 01:37:00,
2013-01-24 20:42:00,15.2,7.5,30.55,North,5,1.0,3.0,71,0.00,,BKN034,0.00,VWS V13.01,2013-01-25 01:42:00,
2013-01-24 20:47:00,15.1,7.7,30.55,North,5,0.0,3.0,72,0.00,,BKN034,0.00,VWS V13.01,2013-01-25 01:47:00,
2013-01-24 20:52:00,15.1,7.7,30.55,North,5,0.0,3.0,72,0.00,,BKN034,0.00,VWS V13.01,2013-01-25 01:52:00,
2013-01-24 20:57:00,15.2,8.1,30.54,North,5,0.0,3.0,73,0.00,,BKN034,0.00,VWS V13.01,2013-01-25 01:57:00,
2013-01-24 21:02:00,15.4,8.6,30.55,North,5,0.0,1.0,74,0.00,,BKN030,0.00,VWS V13.01,2013-01-25 02:02:00,
2013-01-24 21:07:00,15.5,8.7,30.55,North,5,0.0,2.0,74,0.00,,BKN030,0.00,VWS V13.01,2013-01-25 02:07:00,
2013-01-24 21:12:00,15.6,8.8,30.55,NNE,13,0.0,4.0,74,0.00,,BKN030,0.00,VWS V13.01,2013-01-25 02:12:00,
2013-01-24 21:17:00,15.6,8.8,30.55,NNE,13,0.0,4.0,74,0.00,,BKN030,0.00,VWS V13.01,2013-01-25 02:17:00,
2013-01-24 21:22:00,15.6,8.8,30.55,NNE,13,0.0,4.0,74,0.00,,BKN030,0.00,VWS V13.01,2013-01-25 02:22:00,
2013-01-24 21:27:00,15.6,8.8,30.54,North,5,0.0,4.0,74,0.00,,BKN030,0.00,VWS V13.01,2013-01-25 02:27:00,
2013-01-24 21:32:00,15.5,8.7,30.54,North,5,1.0,1.0,74,0.00,,BKN030,0.00,VWS V13.01,2013-01-25 02:32:00,
2013-01-24 21:37:00,15.5,8.7,30.53,NNE,16,0.0,3.0,74,0.00,,BKN030,0.00,VWS V13.01,2013-01-25 02:37:00,
2013-01-24 21:42:00,15.4,8.6,30.53,NNE,16,0.0,3.0,74,0.00,,BKN030,0.00,VWS V13.01,2013-01-25 02:42:00,
2013-01-24 21:47:00,15.4,8.6,30.53,NNE,16,0.0,3.0,74,0.00,,BKN030,0.00,VWS V13.01,2013-01-25 02:47:00,
2013-01-24 21:52:00,15.3,8.8,30.53,West,267,2.0,3.0,75,0.00,,BKN030,0.00,VWS V13.01,2013-01-25 02:52:00,
2013-01-24 21:57:00,15.3,8.8,30.53,NNW,345,2.0,3.0,75,0.00,,BKN030,0.00,VWS V13.01,2013-01-25 02:57:00,
2013-01-24 22:02:00,15.4,8.9,30.53,NNE,15,0.0,1.0,75,0.00,,BKN030,0.00,VWS V13.01,2013-01-25 03:02:00,
2013-01-24 22:08:00,15.4,8.9,30.54,NNE,15,0.0,1.0,75,0.00,,BKN030,0.00,VWS V13.01,2013-01-25 03:08:00,
2013-01-24 22:13:00,15.4,8.9,30.54,NNE,15,0.0,2.0,75,0.00,,BKN030,0.00,VWS V13.01,2013-01-25 03:13:00,
2013-01-24 22:18:00,15.3,8.8,30.54,NNE,15,0.0,2.0,75,0.00,,BKN028,0.00,VWS V13.01,2013-01-25 03:18:00,
2013-01-24 22:23:00,15.1,8.6,30.54,NNE,15,0.0,2.0,75,0.00,,BKN028,0.00,VWS V13.01,2013-01-25 03:23:00,
2013-01-24 22:28:00,15.0,8.5,30.54,NNE,15,0.0,2.0,75,0.00,,BKN028,0.00,VWS V13.01,2013-01-25 03:28:00,
2013-01-24 22:33:00,14.9,8.4,30.53,NNE,15,0.0,1.0,75,0.00,,BKN028,0.00,VWS V13.01,2013-01-25 03:33:00,
2013-01-24 22:38:00,14.8,8.3,30.53,NNE,15,0.0,1.0,75,0.00,,BKN028,0.00,VWS V13.01,2013-01-25 03:38:00,
2013-01-24 22:43:00,14.7,8.2,30.53,NNE,15,0.0,1.0,75,0.00,,BKN028,0.00,VWS V13.01,2013-01-25 03:43:00,
2013-01-24 22:48:00,14.6,8.4,30.53,NNE,15,0.0,1.0,76,0.00,,BKN028,0.00,VWS V13.01,2013-01-25 03:48:00,
2013-01-24 22:53:00,14.5,8.3,30.53,NNE,15,0.0,1.0,76,0.00,,BKN028,0.00,VWS V13.01,2013-01-25 03:53:00,
2013-01-24 22:58:00,14.4,8.2,30.53,NNE,15,0.0,1.0,76,0.00,,BKN028,0.00,VWS V13.01,2013-01-25 03:58:00,
2013-01-24 23:03:00,14.4,8.2,30.54,NNE,15,0.0,0.0,76,0.00,,OVC028,0.00,VWS V13.01,2013-01-25 04:03:00,
2013-01-24 23:08:00,14.4,8.5,30.54,NNE,15,0.0,0.0,77,0.00,,OVC028,0.00,VWS V13.01,2013-01-25 04:08:00,
2013-01-24 23:13:00,14.4,8.5,30.53,NNE,15,0.0,0.0,77,0.00,,OVC028,0.00,VWS V13.01,2013-01-25 04:13:00,
2013-01-24 23:18:00,14.3,8.4,30.53,NNE,15,0.0,0.0,77,0.00,,OVC028,0.00,VWS V13.01,2013-01-25 04:18:00,
2013-01-24 23:23:00,14.1,8.2,30.53,NNE,15,0.0,1.0,77,0.00,,OVC028,0.00,VWS V13.01,2013-01-25 04:23:00,
2013-01-24 23:28:00,13.9,8.3,30.54,NNE,15,0.0,1.0,78,0.00,,OVC028,0.00,VWS V13.01,2013-01-25 04:28:00,
2013-01-24 23:33:00,13.7,8.1,30.54,NNE,15,0.0,0.0,78,0.00,,OVC028,0.00,VWS V13.01,2013-01-25 04:33:00,
2013-01-24 23:38:00,13.6,8.0,30.54,NNE,15,0.0,0.0,78,0.00,,OVC028,0.00,VWS V13.01,2013-01-25 04:38:00,
2013-01-24 23:43:00,13.4,7.8,30.53,NNE,15,0.0,0.0,78,0.00,,OVC028,0.00,VWS V13.01,2013-01-25 04:43:00,
2013-01-24 23:48:00,13.1,7.5,30.53,NNE,15,0.0,0.0,78,0.00,,OVC028,0.00,VWS V13.01,2013-01-25 04:48:00,
2013-01-24 23:53:00,12.8,7.5,30.53,NNE,15,0.0,0.0,79,0.00,,OVC028,0.00,VWS V13.01,2013-01-25 04:53:00,
2013-01-24 23:58:00,12.6,7.3,30.53,NNE,15,0.0,0.0,79,0.00,,OVC028,0.00,VWS V13.01,2013-01-25 04:58:00,